Acacia Lake, Texas
Current Conditions -  °F | °C
As of 1:53 PM on Friday 24 Oct 2014 (Local Time) from KBRO Reporting Station
Clear Clear  
Wind Chill: 85°   Ceiling: Unl
Heat Index: 86°   Visibility: 10mi
Dew Point: 64°   Wind: 10mph
Humidity: 49%   Direction: 40°NE
Pressure: 30.1"   Gusts: NA
Location:  26.0002°N, 97.5729°W
Report Text: KBRO 241853Z 04009KT 10SM CLR 29/18 A3010 RMK AO2 SLP191 T02940178
Loading
Personal Weather Stations






























Interactive Weather Map
Tropical Storm Tracking
New forecast layout! Learn more

10-Day Weather Forecast

Advertisements
Track Severe Weather on mobile